sensor_id;sensor_type;location;lat;lon;timestamp;pressure;altitude;pressure_sealevel;temperature;humidity
59789;BME280;47353;51.614;5.530;2023-03-08T00:02:06;100025.59;;;-1.31;100.00
59789;BME280;47353;51.614;5.530;2023-03-08T00:04:32;100023.25;;;-1.28;100.00
59789;BME280;47353;51.614;5.530;2023-03-08T00:06:58;100028.47;;;-1.26;100.00
59789;BME280;47353;51.614;5.530;2023-03-08T00:09:24;100022.00;;;-1.25;100.00
59789;BME280;47353;51.614;5.530;2023-03-08T00:11:49;100015.13;;;-1.28;100.00
59789;BME280;47353;51.614;5.530;2023-03-08T00:14:15;100014.31;;;-1.28;100.00
59789;BME280;47353;51.614;5.530;2023-03-08T00:16:41;100005.53;;;-1.30;100.00
59789;BME280;47353;51.614;5.530;2023-03-08T00:19:06;100008.69;;;-1.33;100.00
59789;BME280;47353;51.614;5.530;2023-03-08T00:21:31;100013.91;;;-1.32;100.00
59789;BME280;47353;51.614;5.530;2023-03-08T00:23:57;100009.31;;;-1.31;100.00
59789;BME280;47353;51.614;5.530;2023-03-08T00:26:22;100013.47;;;-1.29;100.00
59789;BME280;47353;51.614;5.530;2023-03-08T00:28:48;100009.91;;;-1.29;100.00
59789;BME280;47353;51.614;5.530;2023-03-08T00:31:13;100009.31;;;-1.31;100.00
59789;BME280;47353;51.614;5.530;2023-03-08T00:33:39;100009.31;;;-1.31;100.00
59789;BME280;47353;51.614;5.530;2023-03-08T00:36:16;100013.25;;;-1.27;100.00
59789;BME280;47353;51.614;5.530;2023-03-08T00:38:41;100015.13;;;-1.28;100.00
59789;BME280;47353;51.614;5.530;2023-03-08T00:41:07;99991.13;;;-1.31;100.00
59789;BME280;47353;51.614;5.530;2023-03-08T00:43:33;100006.75;;;-1.26;100.00
59789;BME280;47353;51.614;5.530;2023-03-08T00:45:59;100004.25;;;-1.28;100.00
59789;BME280;47353;51.614;5.530;2023-03-08T00:48:24;100000.28;;;-1.25;100.00
59789;BME280;47353;51.614;5.530;2023-03-08T00:50:50;100006.75;;;-1.26;100.00
59789;BME280;47353;51.614;5.530;2023-03-08T00:53:15;100008.25;;;-1.30;100.00
59789;BME280;47353;51.614;5.530;2023-03-08T00:55:55;100008.25;;;-1.30;100.00
59789;BME280;47353;51.614;5.530;2023-03-08T00:58:23;99997.84;;;-1.33;100.00
59789;BME280;47353;51.614;5.530;2023-03-08T01:00:49;99997.63;;;-1.32;100.00
59789;BME280;47353;51.614;5.530;2023-03-08T01:03:15;100001.19;;;-1.31;100.00
59789;BME280;47353;51.614;5.530;2023-03-08T01:05:44;100001.19;;;-1.31;100.00
59789;BME280;47353;51.614;5.530;2023-03-08T01:08:10;99996.56;;;-1.31;100.00
59789;BME280;47353;51.614;5.530;2023-03-08T01:10:35;99992.16;;;-1.25;100.00
59789;BME280;47353;51.614;5.530;2023-03-08T01:13:02;99995.25;;;-1.22;100.00
59789;BME280;47353;51.614;5.530;2023-03-08T01:15:27;99985.38;;;-1.16;100.00
59789;BME280;47353;51.614;5.530;2023-03-08T01:17:53;99981.81;;;-1.17;100.00
59789;BME280;47353;51.614;5.530;2023-03-08T01:20:18;99980.78;;;-1.16;100.00
59789;BME280;47353;51.614;5.530;2023-03-08T01:22:43;99978.31;;;-1.17;100.00
59789;BME280;47353;51.614;5.530;2023-03-08T01:25:09;99968.66;;;-1.13;100.00
59789;BME280;47353;51.614;5.530;2023-03-08T01:27:34;99959.88;;;-1.15;100.00
59789;BME280;47353;51.614;5.530;2023-03-08T01:30:00;99965.09;;;-1.14;100.00
59789;BME280;47353;51.614;5.530;2023-03-08T01:32:25;99958.63;;;-1.13;100.00
59789;BME280;47353;51.614;5.530;2023-03-08T01:34:51;99959.59;;;-1.07;100.00
59789;BME280;47353;51.614;5.530;2023-03-08T01:37:16;99946.41;;;-1.04;100.00
59789;BME280;47353;51.614;5.530;2023-03-08T01:39:42;99943.47;;;-1.02;100.00
59789;BME280;47353;51.614;5.530;2023-03-08T01:42:07;99937.22;;;-1.03;100.00
59789;BME280;47353;51.614;5.530;2023-03-08T01:44:53;99935.72;;;-0.99;100.00
59789;BME280;47353;51.614;5.530;2023-03-08T01:47:23;99940.72;;;-0.96;100.00
59789;BME280;47353;51.614;5.530;2023-03-08T01:49:54;99923.34;;;-0.95;100.00
59789;BME280;47353;51.614;5.530;2023-03-08T01:52:25;99925.38;;;-0.90;100.00
59789;BME280;47353;51.614;5.530;2023-03-08T01:54:57;99925.38;;;-0.90;100.00
59789;BME280;47353;51.614;5.530;2023-03-08T01:57:37;99927.03;;;-0.89;100.00
59789;BME280;47353;51.614;5.530;2023-03-08T02:00:09;99924.94;;;-0.87;100.00
59789;BME280;47353;51.614;5.530;2023-03-08T02:02:57;99915.34;;;-0.90;100.00
59789;BME280;47353;51.614;5.530;2023-03-08T02:05:25;99914.53;;;-0.90;100.00
59789;BME280;47353;51.614;5.530;2023-03-08T02:07:51;99916.09;;;-0.83;100.00
59789;BME280;47353;51.614;5.530;2023-03-08T02:10:17;99920.84;;;-0.78;100.00
59789;BME280;47353;51.614;5.530;2023-03-08T02:12:42;99922.09;;;-0.74;100.00
59789;BME280;47353;51.614;5.530;2023-03-08T02:15:10;99909.69;;;-0.70;100.00
59789;BME280;47353;51.614;5.530;2023-03-08T02:17:37;99896.25;;;-0.65;100.00
59789;BME280;47353;51.614;5.530;2023-03-08T02:22:40;99890.38;;;-0.62;100.00
59789;BME280;47353;51.614;5.530;2023-03-08T02:27:40;99879.13;;;-0.66;100.00
59789;BME280;47353;51.614;5.530;2023-03-08T02:30:07;99874.53;;;-0.65;100.00
59789;BME280;47353;51.614;5.530;2023-03-08T02:32:33;99879.03;;;-0.59;100.00
59789;BME280;47353;51.614;5.530;2023-03-08T02:34:58;99880.91;;;-0.60;100.00
59789;BME280;47353;51.614;5.530;2023-03-08T02:37:24;99871.97;;;-0.60;100.00
59789;BME280;47353;51.614;5.530;2023-03-08T02:39:49;99869.81;;;-0.58;100.00
59789;BME280;47353;51.614;5.530;2023-03-08T02:42:14;99867.72;;;-0.56;100.00
59789;BME280;47353;51.614;5.530;2023-03-08T02:44:40;99868.78;;;-0.57;100.00
59789;BME280;47353;51.614;5.530;2023-03-08T02:47:05;99858.25;;;-0.54;100.00
59789;BME280;47353;51.614;5.530;2023-03-08T02:49:31;99856.63;;;-0.55;100.00
59789;BME280;47353;51.614;5.530;2023-03-08T02:51:56;99853.66;;;-0.53;100.00
59789;BME280;47353;51.614;5.530;2023-03-08T02:54:21;99854.84;;;-0.49;100.00
59789;BME280;47353;51.614;5.530;2023-03-08T02:56:47;99856.53;;;-0.48;100.00
59789;BME280;47353;51.614;5.530;2023-03-08T02:59:12;99856.53;;;-0.48;100.00
59789;BME280;47353;51.614;5.530;2023-03-08T03:01:38;99853.59;;;-0.47;100.00
59789;BME280;47353;51.614;5.530;2023-03-08T03:04:03;99859.97;;;-0.41;100.00
59789;BME280;47353;51.614;5.530;2023-03-08T03:06:28;99860.59;;;-0.39;100.00
59789;BME280;47353;51.614;5.530;2023-03-08T03:08:54;99858.47;;;-0.37;100.00
59789;BME280;47353;51.614;5.530;2023-03-08T03:11:20;99857.41;;;-0.36;100.00
59789;BME280;47353;51.614;5.530;2023-03-08T03:13:47;99854.00;;;-0.32;100.00
59789;BME280;47353;51.614;5.530;2023-03-08T03:16:17;99830.84;;;-0.34;100.00
59789;BME280;47353;51.614;5.530;2023-03-08T03:18:42;99823.63;;;-0.29;100.00
59789;BME280;47353;51.614;5.530;2023-03-08T03:21:11;99830.94;;;-0.29;100.00
59789;BME280;47353;51.614;5.530;2023-03-08T03:23:36;99833.66;;;-0.29;100.00
59789;BME280;47353;51.614;5.530;2023-03-08T03:26:10;99820.31;;;-0.31;100.00
59789;BME280;47353;51.614;5.530;2023-03-08T03:28:35;99820.91;;;-0.29;100.00
59789;BME280;47353;51.614;5.530;2023-03-08T03:31:06;99819.84;;;-0.28;100.00
59789;BME280;47353;51.614;5.530;2023-03-08T03:33:31;99816.53;;;-0.30;100.00
59789;BME280;47353;51.614;5.530;2023-03-08T03:35:57;99806.13;;;-0.33;100.00
59789;BME280;47353;51.614;5.530;2023-03-08T03:38:22;99793.00;;;-0.36;100.00
59789;BME280;47353;51.614;5.530;2023-03-08T03:40:48;99787.44;;;-0.29;100.00
59789;BME280;47353;51.614;5.530;2023-03-08T03:43:13;99787.69;;;-0.31;100.00
59789;BME280;47353;51.614;5.530;2023-03-08T03:45:38;99789.22;;;-0.23;100.00
59789;BME280;47353;51.614;5.530;2023-03-08T03:48:04;99778.00;;;-0.27;100.00
59789;BME280;47353;51.614;5.530;2023-03-08T03:50:29;99782.84;;;-0.29;100.00
59789;BME280;47353;51.614;5.530;2023-03-08T03:52:55;99779.81;;;-0.21;100.00
59789;BME280;47353;51.614;5.530;2023-03-08T03:55:20;99778.59;;;-0.25;100.00
59789;BME280;47353;51.614;5.530;2023-03-08T03:57:45;99776.25;;;-0.21;100.00
59789;BME280;47353;51.614;5.530;2023-03-08T04:00:11;99782.97;;;-0.24;100.00
59789;BME280;47353;51.614;5.530;2023-03-08T04:02:37;99770.19;;;-0.23;100.00
59789;BME280;47353;51.614;5.530;2023-03-08T04:05:02;99766.19;;;-0.21;100.00
59789;BME280;47353;51.614;5.530;2023-03-08T04:07:28;99774.13;;;-0.19;100.00
59789;BME280;47353;51.614;5.530;2023-03-08T04:09:53;99769.97;;;-0.22;100.00
59789;BME280;47353;51.614;5.530;2023-03-08T04:12:19;99762.41;;;-0.20;100.00
59789;BME280;47353;51.614;5.530;2023-03-08T04:14:44;99765.13;;;-0.20;100.00
59789;BME280;47353;51.614;5.530;2023-03-08T04:17:09;99759.69;;;-0.20;100.00
59789;BME280;47353;51.614;5.530;2023-03-08T04:19:35;99748.94;;;-0.15;100.00
59789;BME280;47353;51.614;5.530;2023-03-08T04:22:00;99743.97;;;-0.18;100.00
59789;BME280;47353;51.614;5.530;2023-03-08T04:24:25;99738.53;;;-0.18;100.00
59789;BME280;47353;51.614;5.530;2023-03-08T04:26:51;99745.50;;;-0.22;100.00
59789;BME280;47353;51.614;5.530;2023-03-08T04:29:16;99735.47;;;-0.21;100.00
59789;BME280;47353;51.614;5.530;2023-03-08T04:31:42;99733.94;;;-0.17;100.00
59789;BME280;47353;51.614;5.530;2023-03-08T04:34:07;99719.38;;;-0.23;100.00
59789;BME280;47353;51.614;5.530;2023-03-08T04:36:33;99727.53;;;-0.23;100.00
59789;BME280;47353;51.614;5.530;2023-03-08T04:38:58;99723.88;;;-0.17;100.00
59789;BME280;47353;51.614;5.530;2023-03-08T04:41:24;99712.28;;;-0.24;100.00
59789;BME280;47353;51.614;5.530;2023-03-08T04:43:52;99708.50;;;-0.23;100.00
59789;BME280;47353;51.614;5.530;2023-03-08T04:46:19;99701.19;;;-0.22;100.00
59789;BME280;47353;51.614;5.530;2023-03-08T04:48:45;99711.34;;;-0.18;100.00
59789;BME280;47353;51.614;5.530;2023-03-08T04:51:13;99700.72;;;-0.19;100.00
59789;BME280;47353;51.614;5.530;2023-03-08T04:53:39;99694.44;;;-0.20;100.00
59789;BME280;47353;51.614;5.530;2023-03-08T04:56:07;99691.72;;;-0.20;100.00
59789;BME280;47353;51.614;5.530;2023-03-08T04:58:33;99687.72;;;-0.17;100.00
59789;BME280;47353;51.614;5.530;2023-03-08T05:00:59;99681.44;;;-0.18;100.00
59789;BME280;47353;51.614;5.530;2023-03-08T05:03:25;99674.94;;;-0.17;100.00
59789;BME280;47353;51.614;5.530;2023-03-08T05:05:53;99666.78;;;-0.17;100.00
59789;BME280;47353;51.614;5.530;2023-03-08T05:08:19;99659.44;;;-0.16;100.00
59789;BME280;47353;51.614;5.530;2023-03-08T05:10:51;99658.63;;;-0.17;100.00
59789;BME280;47353;51.614;5.530;2023-03-08T05:13:17;99662.16;;;-0.16;100.00
59789;BME280;47353;51.614;5.530;2023-03-08T05:15:43;99657.91;;;-0.12;100.00
59789;BME280;47353;51.614;5.530;2023-03-08T05:18:08;99650.59;;;-0.12;100.00
59789;BME280;47353;51.614;5.530;2023-03-08T05:20:34;99649.19;;;-0.14;100.00
59789;BME280;47353;51.614;5.530;2023-03-08T05:22:59;99648.34;;;-0.15;100.00
59789;BME280;47353;51.614;5.530;2023-03-08T05:25:24;99638.53;;;-0.16;100.00
59789;BME280;47353;51.614;5.530;2023-03-08T05:27:50;99635.91;;;-0.11;100.00
59789;BME280;47353;51.614;5.530;2023-03-08T05:30:16;99628.13;;;-0.07;100.00
59789;BME280;47353;51.614;5.530;2023-03-08T05:32:42;99631.19;;;-0.04;100.00
59789;BME280;47353;51.614;5.530;2023-03-08T05:35:07;99618.75;;;0.00;100.00
59789;BME280;47353;51.614;5.530;2023-03-08T05:37:33;99613.19;;;-0.05;100.00
59789;BME280;47353;51.614;5.530;2023-03-08T05:39:58;99605.63;;;-0.03;100.00
59789;BME280;47353;51.614;5.530;2023-03-08T05:42:24;99601.28;;;-0.04;100.00
59789;BME280;47353;51.614;5.530;2023-03-08T05:44:51;99597.25;;;-0.01;100.00
59789;BME280;47353;51.614;5.530;2023-03-08T05:47:17;99591.13;;;-0.08;100.00
59789;BME280;47353;51.614;5.530;2023-03-08T05:49:42;99591.44;;;-0.05;100.00
59789;BME280;47353;51.614;5.530;2023-03-08T05:52:07;99586.13;;;0.00;100.00
59789;BME280;47353;51.614;5.530;2023-03-08T05:54:33;99577.38;;;-0.02;100.00
59789;BME280;47353;51.614;5.530;2023-03-08T05:56:58;99573.13;;;0.03;100.00
59789;BME280;47353;51.614;5.530;2023-03-08T05:59:23;99575.47;;;-0.01;100.00
59789;BME280;47353;51.614;5.530;2023-03-08T06:01:50;99575.47;;;0.11;100.00
59789;BME280;47353;51.614;5.530;2023-03-08T06:04:16;99564.00;;;-0.03;100.00
59789;BME280;47353;51.614;5.530;2023-03-08T06:06:41;99546.75;;;0.03;100.00
59789;BME280;47353;51.614;5.530;2023-03-08T06:09:07;99550.75;;;0.12;100.00
59789;BME280;47353;51.614;5.530;2023-03-08T06:11:32;99550.28;;;0.03;100.00
59789;BME280;47353;51.614;5.530;2023-03-08T06:13:58;99551.97;;;0.05;100.00
59789;BME280;47353;51.614;5.530;2023-03-08T06:16:23;99549.19;;;0.16;100.00
59789;BME280;47353;51.614;5.530;2023-03-08T06:18:48;99557.28;;;-0.01;100.00
59789;BME280;47353;51.614;5.530;2023-03-08T06:21:16;99550.75;;;0.12;100.00
59789;BME280;47353;51.614;5.530;2023-03-08T06:23:43;99543.81;;;-0.07;100.00
59789;BME280;47353;51.614;5.530;2023-03-08T06:26:10;99547.69;;;0.09;100.00
59789;BME280;47353;51.614;5.530;2023-03-08T06:28:36;99550.16;;;-0.02;100.00
59789;BME280;47353;51.614;5.530;2023-03-08T06:31:02;99550.75;;;0.00;100.00
59789;BME280;47353;51.614;5.530;2023-03-08T06:33:29;99540.50;;;-0.09;100.00
59789;BME280;47353;51.614;5.530;2023-03-08T06:36:16;99544.81;;;0.15;100.00
59789;BME280;47353;51.614;5.530;2023-03-08T06:38:42;99543.44;;;0.01;100.00
59789;BME280;47353;51.614;5.530;2023-03-08T06:41:09;99551.47;;;-0.04;100.00
59789;BME280;47353;51.614;5.530;2023-03-08T06:43:36;99542.59;;;0.00;100.00
59789;BME280;47353;51.614;5.530;2023-03-08T06:46:05;99542.78;;;0.22;100.00
59789;BME280;47353;51.614;5.530;2023-03-08T06:48:33;99535.16;;;0.08;100.00
59789;BME280;47353;51.614;5.530;2023-03-08T06:50:58;99533.53;;;-0.05;100.00
59789;BME280;47353;51.614;5.530;2023-03-08T06:53:24;99535.16;;;-0.04;100.00
59789;BME280;47353;51.614;5.530;2023-03-08T06:55:49;99531.72;;;0.12;100.00
59789;BME280;47353;51.614;5.530;2023-03-08T06:58:14;99529.13;;;0.06;100.00
59789;BME280;47353;51.614;5.530;2023-03-08T07:00:40;99539.50;;;0.09;100.00
59789;BME280;47353;51.614;5.530;2023-03-08T07:03:05;99536.25;;;-0.17;100.00
59789;BME280;47353;51.614;5.530;2023-03-08T07:05:31;99544.91;;;-0.20;100.00
59789;BME280;47353;51.614;5.530;2023-03-08T07:07:57;99538.00;;;-0.11;100.00
59789;BME280;47353;51.614;5.530;2023-03-08T07:10:22;99520.50;;;-0.03;100.00
59789;BME280;47353;51.614;5.530;2023-03-08T07:12:49;99535.53;;;-0.01;100.00
59789;BME280;47353;51.614;5.530;2023-03-08T07:15:18;99535.69;;;-0.19;100.00
59789;BME280;47353;51.614;5.530;2023-03-08T07:17:45;99522.88;;;-0.07;100.00
59789;BME280;47353;51.614;5.530;2023-03-08T07:20:12;99525.69;;;-0.02;100.00
59789;BME280;47353;51.614;5.530;2023-03-08T07:22:40;99523.81;;;-0.01;100.00
59789;BME280;47353;51.614;5.530;2023-03-08T07:25:07;99513.91;;;-0.07;100.00
59789;BME280;47353;51.614;5.530;2023-03-08T07:27:32;99520.78;;;-0.16;100.00
59789;BME280;47353;51.614;5.530;2023-03-08T07:29:58;99515.22;;;-0.21;100.00
59789;BME280;47353;51.614;5.530;2023-03-08T07:32:23;99506.59;;;-0.18;100.00
59789;BME280;47353;51.614;5.530;2023-03-08T07:34:53;99506.81;;;-0.20;100.00
59789;BME280;47353;51.614;5.530;2023-03-08T07:37:18;99504.34;;;-0.21;100.00
59789;BME280;47353;51.614;5.530;2023-03-08T07:39:44;99502.59;;;-0.16;100.00
59789;BME280;47353;51.614;5.530;2023-03-08T07:42:09;99502.28;;;-0.03;100.00
59789;BME280;47353;51.614;5.530;2023-03-08T07:44:35;99497.81;;;-0.09;100.00
59789;BME280;47353;51.614;5.530;2023-03-08T07:47:05;99482.22;;;-0.13;100.00
59789;BME280;47353;51.614;5.530;2023-03-08T07:49:31;99498.59;;;0.03;100.00
59789;BME280;47353;51.614;5.530;2023-03-08T07:51:56;99489.41;;;-0.07;100.00
59789;BME280;47353;51.614;5.530;2023-03-08T07:54:22;99491.31;;;0.21;100.00
59789;BME280;47353;51.614;5.530;2023-03-08T07:56:47;99487.00;;;0.08;100.00
59789;BME280;47353;51.614;5.530;2023-03-08T07:59:13;99488.19;;;0.12;100.00
59789;BME280;47353;51.614;5.530;2023-03-08T08:01:38;99483.97;;;0.05;100.00
59789;BME280;47353;51.614;5.530;2023-03-08T08:04:04;99482.50;;;0.14;100.00
59789;BME280;47353;51.614;5.530;2023-03-08T08:06:30;99481.13;;;-0.01;100.00
59789;BME280;47353;51.614;5.530;2023-03-08T08:08:56;99479.31;;;0.05;100.00
59789;BME280;47353;51.614;5.530;2023-03-08T08:11:22;99473.41;;;0.08;100.00
59789;BME280;47353;51.614;5.530;2023-03-08T08:13:48;99470.91;;;0.07;100.00
59789;BME280;47353;51.614;5.530;2023-03-08T08:16:14;99467.31;;;0.18;100.00
59789;BME280;47353;51.614;5.530;2023-03-08T08:18:40;99467.41;;;0.06;100.00
59789;BME280;47353;51.614;5.530;2023-03-08T08:21:08;99468.06;;;0.13;100.00
59789;BME280;47353;51.614;5.530;2023-03-08T08:23:34;99457.78;;;0.32;100.00
59789;BME280;47353;51.614;5.530;2023-03-08T08:26:03;99456.09;;;0.14;100.00
59789;BME280;47353;51.614;5.530;2023-03-08T08:28:29;99454.47;;;0.13;100.00
59789;BME280;47353;51.614;5.530;2023-03-08T08:31:00;99452.59;;;0.02;100.00
59789;BME280;47353;51.614;5.530;2023-03-08T08:33:27;99450.38;;;-0.01;100.00
59789;BME280;47353;51.614;5.530;2023-03-08T08:35:53;99454.03;;;0.05;100.00
59789;BME280;47353;51.614;5.530;2023-03-08T08:38:19;99446.97;;;-0.08;100.00
59789;BME280;47353;51.614;5.530;2023-03-08T08:40:44;99435.38;;;-0.04;100.00
59789;BME280;47353;51.614;5.530;2023-03-08T08:43:10;99419.88;;;-0.03;100.00
59789;BME280;47353;51.614;5.530;2023-03-08T08:45:35;99419.97;;;0.02;100.00
59789;BME280;47353;51.614;5.530;2023-03-08T08:48:01;99417.75;;;-0.01;100.00
59789;BME280;47353;51.614;5.530;2023-03-08T08:50:26;99431.81;;;-0.04;100.00
59789;BME280;47353;51.614;5.530;2023-03-08T08:52:51;99432.03;;;0.06;100.00
59789;BME280;47353;51.614;5.530;2023-03-08T08:55:17;99427.50;;;0.12;100.00
59789;BME280;47353;51.614;5.530;2023-03-08T08:57:42;99431.47;;;0.21;100.00
59789;BME280;47353;51.614;5.530;2023-03-08T09:00:08;99431.66;;;0.31;100.00
59789;BME280;47353;51.614;5.530;2023-03-08T09:02:34;99437.53;;;0.39;100.00
59789;BME280;47353;51.614;5.530;2023-03-08T09:05:00;99433.91;;;0.50;100.00
59789;BME280;47353;51.614;5.530;2023-03-08T09:07:25;99439.19;;;0.57;100.00
59789;BME280;47353;51.614;5.530;2023-03-08T09:09:53;99437.63;;;0.44;100.00
59789;BME280;47353;51.614;5.530;2023-03-08T09:12:19;99444.16;;;0.43;100.00
59789;BME280;47353;51.614;5.530;2023-03-08T09:14:45;99446.66;;;0.33;100.00
59789;BME280;47353;51.614;5.530;2023-03-08T09:17:11;99436.03;;;0.32;100.00
59789;BME280;47353;51.614;5.530;2023-03-08T09:19:36;99435.19;;;0.31;100.00
59789;BME280;47353;51.614;5.530;2023-03-08T09:22:02;99411.47;;;0.43;100.00
59789;BME280;47353;51.614;5.530;2023-03-08T09:24:27;99395.06;;;0.38;100.00
59789;BME280;47353;51.614;5.530;2023-03-08T09:26:53;99385.66;;;0.29;100.00
59789;BME280;47353;51.614;5.530;2023-03-08T09:29:18;99386.56;;;0.35;100.00
59789;BME280;47353;51.614;5.530;2023-03-08T09:31:43;99385.06;;;0.44;100.00
59789;BME280;47353;51.614;5.530;2023-03-08T09:34:11;99380.31;;;0.51;100.00
59789;BME280;47353;51.614;5.530;2023-03-08T09:36:38;99379.16;;;0.63;100.00
59789;BME280;47353;51.614;5.530;2023-03-08T09:39:10;99378.63;;;0.83;100.00
59789;BME280;47353;51.614;5.530;2023-03-08T09:41:49;99379.44;;;1.00;100.00
59789;BME280;47353;51.614;5.530;2023-03-08T09:44:17;99364.88;;;1.11;100.00
59789;BME280;47353;51.614;5.530;2023-03-08T09:49:30;99356.00;;;1.20;100.00
59789;BME280;47353;51.614;5.530;2023-03-08T09:52:14;99357.16;;;1.24;100.00
59789;BME280;47353;51.614;5.530;2023-03-08T09:54:41;99353.75;;;1.34;100.00
59789;BME280;47353;51.614;5.530;2023-03-08T09:57:14;99349.56;;;1.48;100.00
59789;BME280;47353;51.614;5.530;2023-03-08T09:59:48;99359.53;;;1.64;100.00
59789;BME280;47353;51.614;5.530;2023-03-08T10:05:05;99336.72;;;1.97;100.00
59789;BME280;47353;51.614;5.530;2023-03-08T10:13:05;99324.69;;;2.97;100.00
59789;BME280;47353;51.614;5.530;2023-03-08T10:15:37;99331.66;;;3.25;100.00
59789;BME280;47353;51.614;5.530;2023-03-08T10:18:12;99328.81;;;3.67;100.00
59789;BME280;47353;51.614;5.530;2023-03-08T10:20:41;99337.41;;;4.15;100.00
59789;BME280;47353;51.614;5.530;2023-03-08T10:23:15;99346.44;;;4.26;99.17
59789;BME280;47353;51.614;5.530;2023-03-08T10:25:41;99353.31;;;4.13;98.64
59789;BME280;47353;51.614;5.530;2023-03-08T10:28:18;99349.41;;;3.94;98.27
59789;BME280;47353;51.614;5.530;2023-03-08T10:30:50;99343.38;;;3.87;97.20
59789;BME280;47353;51.614;5.530;2023-03-08T10:33:17;99339.81;;;3.82;98.24
59789;BME280;47353;51.614;5.530;2023-03-08T10:36:23;99332.72;;;3.96;99.32
59789;BME280;47353;51.614;5.530;2023-03-08T10:39:00;99327.78;;;3.93;97.16
59789;BME280;47353;51.614;5.530;2023-03-08T10:41:29;99326.97;;;3.82;96.75
59789;BME280;47353;51.614;5.530;2023-03-08T10:43:57;99322.28;;;3.73;96.41
59789;BME280;47353;51.614;5.530;2023-03-08T10:46:25;99314.59;;;3.70;96.12
59789;BME280;47353;51.614;5.530;2023-03-08T10:48:52;99314.53;;;3.50;95.50
59789;BME280;47353;51.614;5.530;2023-03-08T10:51:19;99317.84;;;3.57;96.53
59789;BME280;47353;51.614;5.530;2023-03-08T10:54:03;99309.97;;;3.75;95.36
59789;BME280;47353;51.614;5.530;2023-03-08T10:59:00;99292.44;;;3.81;93.88
59789;BME280;47353;51.614;5.530;2023-03-08T11:01:32;99298.22;;;3.90;95.79
59789;BME280;47353;51.614;5.530;2023-03-08T11:04:26;99312.50;;;4.17;93.94
59789;BME280;47353;51.614;5.530;2023-03-08T11:06:52;99326.44;;;4.05;91.00
59789;BME280;47353;51.614;5.530;2023-03-08T11:09:28;99327.53;;;4.04;90.66
59789;BME280;47353;51.614;5.530;2023-03-08T11:11:56;99332.97;;;3.89;91.15
59789;BME280;47353;51.614;5.530;2023-03-08T11:14:22;99323.63;;;3.75;91.97
59789;BME280;47353;51.614;5.530;2023-03-08T11:19:58;99312.38;;;3.62;92.24
59789;BME280;47353;51.614;5.530;2023-03-08T11:23:01;99321.09;;;3.43;93.46
59789;BME280;47353;51.614;5.530;2023-03-08T11:33:57;99314.94;;;3.16;95.17
59789;BME280;47353;51.614;5.530;2023-03-08T11:36:43;99306.34;;;2.93;95.05
59789;BME280;47353;51.614;5.530;2023-03-08T11:39:35;99300.44;;;3.11;96.77
59789;BME280;47353;51.614;5.530;2023-03-08T11:45:11;99302.63;;;3.14;93.99
59789;BME280;47353;51.614;5.530;2023-03-08T11:50:39;99288.47;;;2.75;92.94
59789;BME280;47353;51.614;5.530;2023-03-08T11:55:56;99276.59;;;2.55;96.15
59789;BME280;47353;51.614;5.530;2023-03-08T11:58:30;99262.78;;;2.76;96.21
59789;BME280;47353;51.614;5.530;2023-03-08T12:01:04;99263.47;;;2.98;95.42
59789;BME280;47353;51.614;5.530;2023-03-08T12:03:35;99253.59;;;2.92;96.46
59789;BME280;47353;51.614;5.530;2023-03-08T12:06:37;99270.13;;;3.22;95.01
59789;BME280;47353;51.614;5.530;2023-03-08T12:09:28;99269.59;;;3.20;95.27
59789;BME280;47353;51.614;5.530;2023-03-08T12:12:15;99263.34;;;3.30;94.84
59789;BME280;47353;51.614;5.530;2023-03-08T12:14:50;99255.44;;;3.38;94.56
59789;BME280;47353;51.614;5.530;2023-03-08T12:17:33;99254.38;;;3.55;94.90
59789;BME280;47353;51.614;5.530;2023-03-08T12:19:59;99256.53;;;3.47;93.98
59789;BME280;47353;51.614;5.530;2023-03-08T12:22:41;99253.50;;;3.44;94.08
59789;BME280;47353;51.614;5.530;2023-03-08T12:25:31;99259.84;;;3.55;94.81
59789;BME280;47353;51.614;5.530;2023-03-08T12:28:03;99271.78;;;3.28;93.73
59789;BME280;47353;51.614;5.530;2023-03-08T12:30:47;99278.31;;;3.17;92.83
59789;BME280;47353;51.614;5.530;2023-03-08T12:33:15;99260.78;;;3.13;94.08
59789;BME280;47353;51.614;5.530;2023-03-08T12:35:52;99257.50;;;3.06;94.55
59789;BME280;47353;51.614;5.530;2023-03-08T12:40:48;99275.75;;;2.96;95.64
59789;BME280;47353;51.614;5.530;2023-03-08T12:48:25;99264.03;;;3.05;92.42
59789;BME280;47353;51.614;5.530;2023-03-08T12:51:00;99250.44;;;2.64;95.08
59789;BME280;47353;51.614;5.530;2023-03-08T12:58:53;99217.59;;;3.10;95.52
59789;BME280;47353;51.614;5.530;2023-03-08T13:01:27;99198.22;;;3.17;95.45
59789;BME280;47353;51.614;5.530;2023-03-08T13:03:53;99205.31;;;3.13;93.79
59789;BME280;47353;51.614;5.530;2023-03-08T13:08:58;99192.97;;;3.05;92.78
59789;BME280;47353;51.614;5.530;2023-03-08T13:11:35;99193.78;;;3.01;95.16
59789;BME280;47353;51.614;5.530;2023-03-08T13:14:02;99199.03;;;3.22;91.86
59789;BME280;47353;51.614;5.530;2023-03-08T13:16:36;99199.28;;;3.11;94.26
59789;BME280;47353;51.614;5.530;2023-03-08T13:21:57;99209.06;;;2.97;93.38
59789;BME280;47353;51.614;5.530;2023-03-08T13:29:29;99216.75;;;3.00;91.75
59789;BME280;47353;51.614;5.530;2023-03-08T13:31:56;99218.84;;;2.83;93.41
59789;BME280;47353;51.614;5.530;2023-03-08T13:34:28;99215.28;;;2.77;94.00
59789;BME280;47353;51.614;5.530;2023-03-08T13:36:53;99228.94;;;2.77;94.23
59789;BME280;47353;51.614;5.530;2023-03-08T13:39:25;99230.63;;;2.83;93.31
59789;BME280;47353;51.614;5.530;2023-03-08T13:41:51;99224.28;;;2.78;93.45
59789;BME280;47353;51.614;5.530;2023-03-08T13:44:25;99207.34;;;2.76;93.67
59789;BME280;47353;51.614;5.530;2023-03-08T13:46:55;99220.22;;;2.85;93.05
59789;BME280;47353;51.614;5.530;2023-03-08T13:49:26;99221.63;;;2.88;93.38
59789;BME280;47353;51.614;5.530;2023-03-08T13:51:55;99219.00;;;2.61;94.11
59789;BME280;47353;51.614;5.530;2023-03-08T13:54:27;99209.19;;;2.60;95.21
59789;BME280;47353;51.614;5.530;2023-03-08T13:56:57;99225.31;;;2.67;95.85
59789;BME280;47353;51.614;5.530;2023-03-08T13:59:24;99213.91;;;2.80;93.33
59789;BME280;47353;51.614;5.530;2023-03-08T14:01:51;99209.50;;;2.69;94.74
59789;BME280;47353;51.614;5.530;2023-03-08T14:04:19;99210.88;;;2.71;95.13